Time;durP1;ratioP1;P1;durP2;ratioP2;P2;SDS_P1;SDS_P2;PMS_P1;PMS_P2;Temp;Humidity;BMP_temperature;BMP_pressure;BME280_temperature;BME280_humidity;BME280_pressure;Samples;Min_cycle;Max_cycle;Signal;HPM_P1;HPM_P2
2023/09/22 00:00:15;;;;;;;0.75;0.75;;;;;;;20.81;71.39;98604.50;5075032;28;19927;-62
2023/09/22 00:02:46;;;;;;;0.73;0.68;;;;;;;20.79;71.68;98601.16;5075207;28;20075;-63
2023/09/22 00:05:18;;;;;;;0.77;0.70;;;;;;;20.77;71.86;98593.50;5075867;28;20071;-63
2023/09/22 00:07:46;;;;;;;1.08;0.95;;;;;;;20.76;71.60;98583.19;5074953;28;20052;-62
2023/09/22 00:10:15;;;;;;;1.10;0.97;;;;;;;20.73;71.83;98581.66;5074887;28;20054;-62
2023/09/22 00:12:45;;;;;;;0.80;0.75;;;;;;;20.74;71.91;98580.69;5074801;28;20765;-64
2023/09/22 00:15:15;;;;;;;3.60;1.63;;;;;;;20.74;71.85;98570.31;5074680;28;20044;-64
2023/09/22 00:17:45;;;;;;;0.63;0.63;;;;;;;20.70;71.87;98572.28;5075020;28;20059;-64
2023/09/22 00:20:15;;;;;;;11.05;1.60;;;;;;;20.70;71.98;98566.25;5074628;28;20123;-64
2023/09/22 00:22:45;;;;;;;0.63;0.63;;;;;;;20.70;71.96;98558.47;5074783;28;20052;-64
2023/09/22 00:25:15;;;;;;;0.60;0.60;;;;;;;20.69;72.06;98569.75;5074484;28;20496;-64
2023/09/22 00:27:45;;;;;;;2.08;1.10;;;;;;;20.63;72.13;98570.13;5075073;28;20102;-62
2023/09/22 00:30:14;;;;;;;1.10;1.00;;;;;;;20.59;72.51;98566.03;5073512;28;20063;-62
2023/09/22 00:32:43;;;;;;;2.17;1.23;;;;;;;20.56;72.51;98568.84;5073560;28;20080;-64
2023/09/22 00:35:14;;;;;;;1.02;0.93;;;;;;;20.50;72.66;98574.38;5074681;28;20127;-63
2023/09/22 00:37:42;;;;;;;0.60;0.60;;;;;;;20.45;72.76;98566.03;5074895;28;20044;-63
2023/09/22 00:40:14;;;;;;;1.05;0.98;;;;;;;20.44;73.03;98559.19;5072809;28;20045;-63
2023/09/22 00:42:43;;;;;;;0.90;0.80;;;;;;;20.43;73.13;98565.28;5074218;28;20115;-62
2023/09/22 00:45:14;;;;;;;2.53;0.98;;;;;;;20.43;73.34;98562.69;5072930;28;20087;-64
2023/09/22 00:47:43;;;;;;;0.60;0.60;;;;;;;20.43;73.13;98570.47;5073290;28;20040;-65
2023/09/22 00:50:12;;;;;;;0.75;0.75;;;;;;;20.35;73.19;98572.66;5074366;28;20044;-64
2023/09/22 00:52:42;;;;;;;6.43;1.67;;;;;;;20.35;73.45;98567.47;5074021;28;20128;-64
2023/09/22 00:55:12;;;;;;;0.45;0.45;;;;;;;20.34;73.13;98576.19;5074271;28;20049;-63
2023/09/22 00:57:41;;;;;;;0.50;0.50;;;;;;;20.32;73.55;98572.84;5073971;28;20044;-64
2023/09/22 01:00:12;;;;;;;1.17;1.10;;;;;;;20.30;73.40;98577.31;5072705;28;20040;-64
2023/09/22 01:02:41;;;;;;;0.40;0.40;;;;;;;20.22;73.77;98569.09;5072637;28;20040;-63
2023/09/22 01:05:10;;;;;;;;;;;;;;;20.21;73.79;98563.06;5074142;28;20492;-63
2023/09/22 01:07:40;;;;;;;0.50;0.50;;;;;;;20.25;73.56;98569.75;5072644;28;20003;-63
2023/09/22 01:10:09;;;;;;;1.27;0.77;;;;;;;20.21;73.79;98577.78;5074051;28;20068;-64
2023/09/22 01:12:39;;;;;;;;;;;;;;;20.18;73.88;98577.97;5073251;28;20496;-64
2023/09/22 01:15:10;;;;;;;1.05;1.05;;;;;;;20.16;73.80;98574.59;5072476;28;19928;-64
2023/09/22 01:17:39;;;;;;;0.57;0.57;;;;;;;20.15;73.63;98578.13;5072848;28;20059;-63
2023/09/22 01:20:10;;;;;;;2.58;1.95;;;;;;;20.17;73.84;98581.47;5073734;28;20044;-64
2023/09/22 01:22:43;;;;;;;1.38;1.27;;;;;;;20.13;73.70;98583.38;5073512;28;20045;-64
2023/09/22 01:25:12;;;;;;;1.20;1.13;;;;;;;20.11;73.77;98582.66;5074185;28;20131;-63
2023/09/22 01:27:41;;;;;;;0.73;0.70;;;;;;;20.06;73.95;98575.13;5073766;28;20053;-63
2023/09/22 01:30:13;;;;;;;0.93;0.80;;;;;;;20.05;73.88;98578.66;5072361;28;20051;-64
2023/09/22 01:32:43;;;;;;;0.68;0.68;;;;;;;20.04;74.20;98576.16;5073681;28;20044;-63
2023/09/22 01:35:12;;;;;;;0.75;0.75;;;;;;;20.01;74.12;98574.56;5073732;28;20082;-63
2023/09/22 01:37:51;;;;;;;0.40;0.40;;;;;;;19.98;74.28;98571.31;5073385;28;20492;-63
2023/09/22 01:40:20;;;;;;;0.73;0.73;;;;;;;19.95;74.25;98567.16;5073247;28;20136;-63
2023/09/22 01:42:49;;;;;;;0.98;0.68;;;;;;;19.91;74.19;98565.66;5073584;28;20068;-63
2023/09/22 01:45:18;;;;;;;0.93;0.93;;;;;;;19.93;74.08;98557.78;5073722;28;20041;-64
2023/09/22 01:47:47;;;;;;;0.95;0.70;;;;;;;19.93;74.29;98563.81;5078558;28;20041;-62
2023/09/22 01:50:16;;;;;;;0.50;0.50;;;;;;;19.87;74.13;98547.75;5080040;28;20051;-63
2023/09/22 01:52:47;;;;;;;1.23;0.90;;;;;;;19.89;74.17;98557.13;5078865;28;20048;-62
2023/09/22 01:55:16;;;;;;;0.70;0.70;;;;;;;19.89;73.77;98562.31;5078804;28;20067;-63
2023/09/22 01:57:49;;;;;;;3.38;1.85;;;;;;;19.86;74.07;98562.50;5078713;28;20048;-63
2023/09/22 02:00:18;;;;;;;3.30;1.60;;;;;;;19.84;74.12;98558.31;5079096;28;20045;-62
2023/09/22 02:02:48;;;;;;;2.45;1.17;;;;;;;19.87;74.00;98551.19;5080017;28;20036;-62
2023/09/22 02:05:17;;;;;;;0.85;0.82;;;;;;;19.87;74.02;98547.75;5079946;28;20120;-62
2023/09/22 02:07:48;;;;;;;0.50;0.50;;;;;;;19.88;73.68;98559.81;5078673;28;20045;-63
2023/09/22 02:10:18;;;;;;;0.60;0.60;;;;;;;19.89;73.87;98559.72;5078906;28;20133;-62
2023/09/22 02:12:47;;;;;;;0.57;0.57;;;;;;;19.84;73.86;98561.72;5079810;28;20067;-62
2023/09/22 02:15:16;;;;;;;1.10;1.00;;;;;;;19.83;73.88;98567.84;5079834;28;20540;-62
2023/09/22 02:17:46;;;;;;;0.43;0.43;;;;;;;19.85;73.67;98566.00;5080017;28;20053;-64
2023/09/22 02:20:22;;;;;;;0.77;0.73;;;;;;;19.82;73.67;98558.38;5079695;28;20093;-62
2023/09/22 02:22:55;;;;;;;0.80;0.80;;;;;;;19.82;73.54;98566.16;5078863;28;20403;-63
2023/09/22 02:25:25;;;;;;;0.77;0.77;;;;;;;19.83;73.69;98562.66;5080015;28;20575;-62
2023/09/22 02:27:56;;;;;;;3.45;1.00;;;;;;;19.85;73.69;98552.19;5079939;28;20040;-63
2023/09/22 02:30:26;;;;;;;0.60;0.60;;;;;;;19.83;73.46;98552.28;5078466;28;20040;-62
2023/09/22 02:32:55;;;;;;;2.03;1.45;;;;;;;19.80;73.69;98551.63;5079891;28;20496;-63
2023/09/22 02:35:24;;;;;;;0.45;0.45;;;;;;;19.81;73.69;98537.78;5079838;28;20033;-63
2023/09/22 02:37:54;;;;;;;0.70;0.70;;;;;;;19.79;73.53;98540.44;5079845;28;20036;-61
2023/09/22 02:40:23;;;;;;;0.73;0.73;;;;;;;19.79;73.70;98540.44;5078255;28;20057;-63
2023/09/22 02:42:52;;;;;;;0.80;0.77;;;;;;;19.79;73.59;98539.63;5078767;28;20120;-62
2023/09/22 02:45:22;;;;;;;0.50;0.50;;;;;;;19.83;73.44;98536.75;5078552;28;20458;-62
2023/09/22 02:47:53;;;;;;;0.50;0.50;;;;;;;19.85;73.46;98534.91;5079462;28;20064;-62
2023/09/22 02:50:22;;;;;;;1.05;1.05;;;;;;;19.84;73.38;98535.00;5078262;28;20097;-63
2023/09/22 02:52:51;;;;;;;0.55;0.55;;;;;;;19.83;73.44;98541.09;5079419;28;20078;-62
2023/09/22 02:55:21;;;;;;;0.77;0.77;;;;;;;19.80;73.67;98529.16;5079706;28;20055;-62
2023/09/22 02:57:50;;;;;;;1.48;1.02;;;;;;;19.79;73.71;98529.25;5075427;28;20524;-61
2023/09/22 03:00:20;;;;;;;0.50;0.50;;;;;;;19.76;73.77;98530.25;5076579;28;20048;-62
2023/09/22 03:02:52;;;;;;;0.95;0.95;;;;;;;19.75;73.62;98527.75;5076093;28;20054;-62
2023/09/22 03:05:22;;;;;;;0.70;0.70;;;;;;;19.73;73.98;98517.47;5076960;28;20481;-62
2023/09/22 03:07:55;;;;;;;0.50;0.50;;;;;;;19.73;73.87;98514.03;5075746;28;20468;-63
2023/09/22 03:10:26;;;;;;;1.50;0.98;;;;;;;19.74;73.94;98518.31;5076348;28;20441;-62
2023/09/22 03:12:55;;;;;;;1.10;0.98;;;;;;;19.69;73.96;98516.00;5074837;28;20052;-62
2023/09/22 03:15:24;;;;;;;;;;;;;;;19.68;74.18;98511.72;5075102;28;20039;-63
2023/09/22 03:17:53;;;;;;;0.57;0.57;;;;;;;19.70;73.94;98525.41;5075310;28;19924;-62
2023/09/22 03:20:24;;;;;;;1.38;1.08;;;;;;;19.67;73.97;98523.00;5075837;28;20480;-63
2023/09/22 03:22:52;;;;;;;0.85;0.82;;;;;;;19.67;74.06;98524.75;5074500;28;20051;-63
2023/09/22 03:25:21;;;;;;;2.60;1.98;;;;;;;19.64;74.12;98522.34;5075936;28;20040;-62
2023/09/22 03:27:52;;;;;;;1.40;1.08;;;;;;;19.64;74.22;98525.78;5074924;28;20094;-62
2023/09/22 03:30:21;;;;;;;0.68;0.68;;;;;;;19.61;74.18;98525.94;5074424;28;20044;-62
2023/09/22 03:32:52;;;;;;;0.60;0.60;;;;;;;19.62;74.04;98521.59;5074596;28;20098;-62
2023/09/22 03:35:22;;;;;;;0.73;0.73;;;;;;;19.61;74.04;98520.75;5074660;28;20052;-63
2023/09/22 03:37:52;;;;;;;0.80;0.80;;;;;;;19.62;73.94;98522.44;5075582;28;20052;-63
2023/09/22 03:40:30;;;;;;;4.38;1.25;;;;;;;19.63;74.11;98518.91;5075614;28;20040;-62
2023/09/22 03:43:03;;;;;;;0.57;0.57;;;;;;;19.58;74.11;98520.09;5074503;28;20492;-63
2023/09/22 03:45:32;;;;;;;0.93;0.77;;;;;;;19.57;74.23;98514.09;5075721;28;20369;-62
2023/09/22 03:48:03;;;;;;;1.27;1.05;;;;;;;19.61;74.28;98515.56;5074345;28;20056;-62
2023/09/22 03:50:32;;;;;;;1.30;1.20;;;;;;;19.57;74.03;98506.31;5074385;28;20048;-64
2023/09/22 03:53:02;;;;;;;0.63;0.63;;;;;;;19.57;74.10;98503.72;5073988;28;20041;-62
2023/09/22 03:55:32;;;;;;;1.85;0.50;;;;;;;19.56;73.96;98507.22;5074633;28;20433;-62
2023/09/22 03:58:03;;;;;;;0.80;0.80;;;;;;;19.53;74.31;98515.16;5075169;28;20051;-61
2023/09/22 04:00:32;;;;;;;0.50;0.50;;;;;;;19.51;74.34;98519.59;5073881;28;20131;-62
2023/09/22 04:03:01;;;;;;;0.60;0.60;;;;;;;19.50;74.47;98525.69;5074936;28;20048;-63
2023/09/22 04:05:31;;;;;;;0.50;0.50;;;;;;;19.52;74.41;98530.78;5075262;28;20082;-63
2023/09/22 04:08:00;;;;;;;1.40;0.88;;;;;;;19.50;74.54;98523.13;5075188;28;20045;-63
2023/09/22 04:10:29;;;;;;;2.05;1.23;;;;;;;19.51;74.59;98527.34;5073373;28;20581;-63
2023/09/22 04:12:58;;;;;;;5.25;1.35;;;;;;;19.49;74.63;98526.59;5074713;28;20051;-62
2023/09/22 04:15:28;;;;;;;0.93;0.90;;;;;;;19.49;74.62;98531.78;5074857;28;20124;-63
2023/09/22 04:17:57;;;;;;;0.70;0.70;;;;;;;19.47;74.68;98525.88;5075318;28;20056;-63
2023/09/22 04:20:32;;;;;;;0.43;0.43;;;;;;;19.48;74.67;98530.13;5074877;28;20044;-63
2023/09/22 04:23:03;;;;;;;0.70;0.70;;;;;;;19.47;74.67;98520.69;5074531;28;20052;-63
2023/09/22 04:25:37;;;;;;;3.95;0.80;;;;;;;19.51;74.45;98519.59;5074604;28;20385;-60
2023/09/22 04:28:11;;;;;;;0.57;0.57;;;;;;;19.55;74.39;98521.09;5074563;28;20048;-62
2023/09/22 04:30:42;;;;;;;1.15;0.85;;;;;;;19.55;74.42;98531.47;5075018;28;20056;-61
2023/09/22 04:33:11;;;;;;;1.17;1.08;;;;;;;19.52;74.63;98518.69;5074556;28;20044;-62
2023/09/22 04:35:40;;;;;;;0.50;0.50;;;;;;;19.49;74.71;98526.59;5074415;28;20064;-62
2023/09/22 04:38:10;;;;;;;0.65;0.65;;;;;;;19.51;74.83;98524.75;5074284;28;20041;-62
2023/09/22 04:40:39;;;;;;;0.70;0.70;;;;;;;19.55;74.86;98520.25;5085774;28;20048;-63
2023/09/22 04:43:09;;;;;;;1.13;1.02;;;;;;;19.58;74.75;98526.09;5075833;28;20101;-61
2023/09/22 04:45:39;;;;;;;0.85;0.85;;;;;;;19.56;74.85;98542.63;5074063;28;20051;-61
2023/09/22 04:48:11;;;;;;;0.73;0.73;;;;;;;19.59;74.83;98532.94;5074167;28;20051;-61
2023/09/22 04:50:40;;;;;;;0.75;0.75;;;;;;;19.68;74.46;98542.78;5074091;28;20048;-62
2023/09/22 04:53:08;;;;;;;1.30;1.02;;;;;;;19.68;74.56;98540.19;5074201;28;20045;-61
2023/09/22 04:55:38;;;;;;;0.60;0.60;;;;;;;19.72;74.65;98544.31;5073946;28;20045;-61
2023/09/22 04:58:07;;;;;;;0.77;0.77;;;;;;;19.77;74.29;98537.09;5073921;28;20532;-62
2023/09/22 05:00:37;;;;;;;0.47;0.47;;;;;;;19.77;74.34;98537.09;5073933;28;20053;-62
2023/09/22 05:03:07;;;;;;;0.50;0.50;;;;;;;19.75;74.09;98538.09;5073892;28;20508;-62
2023/09/22 05:05:38;;;;;;;1.50;1.23;;;;;;;19.77;74.36;98547.44;5073657;28;20129;-62
2023/09/22 05:08:07;;;;;;;1.17;1.02;;;;;;;19.82;74.28;98549.81;5073824;28;20048;-62
2023/09/22 05:10:36;;;;;;;0.90;0.80;;;;;;;19.85;74.22;98553.03;5073733;28;20496;-62
2023/09/22 05:13:05;;;;;;;0.90;0.87;;;;;;;19.89;74.12;98564.06;5073876;28;20036;-61
2023/09/22 05:15:34;;;;;;;0.60;0.60;;;;;;;19.90;74.12;98563.97;5073835;28;20289;-63
2023/09/22 05:18:04;;;;;;;1.27;1.15;;;;;;;19.96;74.05;98568.78;5073990;28;20066;-63
2023/09/22 05:20:34;;;;;;;0.35;0.35;;;;;;;20.02;73.74;98568.47;5073048;28;20105;-61
2023/09/22 05:23:05;;;;;;;0.47;0.47;;;;;;;20.06;73.57;98572.53;5073593;28;20044;-62
2023/09/22 05:25:39;;;;;;;1.75;0.82;;;;;;;20.10;73.53;98565.44;5073686;28;20492;-62
2023/09/22 05:28:10;;;;;;;0.60;0.60;;;;;;;20.19;73.37;98569.25;5073510;28;20078;-62
2023/09/22 05:30:40;;;;;;;0.80;0.80;;;;;;;20.19;73.72;98577.03;5106368;28;20143;-62
2023/09/22 05:33:10;;;;;;;0.60;0.60;;;;;;;20.16;74.06;98572.84;5073550;28;20055;-63
2023/09/22 05:35:39;;;;;;;0.47;0.47;;;;;;;20.13;74.41;98570.44;5073674;28;20118;-62
2023/09/22 05:38:11;;;;;;;0.82;0.80;;;;;;;20.17;74.35;98571.09;5073474;28;20079;-62
2023/09/22 05:40:40;;;;;;;1.27;1.00;;;;;;;20.25;74.42;98579.31;5074293;28;20041;-62
2023/09/22 05:43:12;;;;;;;3.70;0.88;;;;;;;20.31;74.17;98581.53;5073497;28;20048;-62
2023/09/22 05:45:42;;;;;;;0.73;0.73;;;;;;;20.33;74.28;98572.75;5073593;28;20052;-61
2023/09/22 05:48:11;;;;;;;2.40;1.05;;;;;;;20.44;73.76;98579.91;5074101;28;20044;-62
2023/09/22 05:50:40;;;;;;;3.42;1.33;;;;;;;20.52;72.84;98577.69;5073289;28;20500;-62
2023/09/22 05:53:10;;;;;;;2.47;1.58;;;;;;;20.61;72.49;98583.19;5073284;28;20045;-63
2023/09/22 05:55:39;;;;;;;2.72;1.85;;;;;;;20.66;72.33;98575.13;5073084;28;20053;-63
2023/09/22 05:58:08;;;;;;;2.50;0.88;;;;;;;20.70;72.29;98589.59;5073158;28;20037;-66
2023/09/22 06:00:37;;;;;;;0.40;0.40;;;;;;;20.74;72.13;98593.66;5073496;28;20090;-64
2023/09/22 06:03:09;;;;;;;0.50;0.50;;;;;;;20.81;71.90;98587.19;5073185;28;20055;-64
2023/09/22 06:05:39;;;;;;;0.60;0.60;;;;;;;20.88;71.59;98593.69;5073062;28;20037;-66
2023/09/22 06:08:08;;;;;;;0.75;0.75;;;;;;;20.95;71.40;98605.34;5073043;28;20128;-65
2023/09/22 06:10:38;;;;;;;2.00;1.70;;;;;;;21.06;71.06;98603.00;5070530;28;20047;-67
2023/09/22 06:13:07;;;;;;;0.90;0.88;;;;;;;21.19;70.77;98614.28;5062513;28;20045;-61
2023/09/22 06:15:36;;;;;;;0.90;0.85;;;;;;;21.30;70.54;98618.84;5073067;28;20068;-63
2023/09/22 06:18:05;;;;;;;0.90;0.82;;;;;;;21.33;70.28;98609.09;5073340;28;20131;-59
2023/09/22 06:20:34;;;;;;;0.80;0.70;;;;;;;21.30;70.66;98624.88;5071692;28;20043;-61
2023/09/22 06:23:03;;;;;;;0.45;0.45;;;;;;;21.29;70.93;98623.19;5072953;28;20045;-62
2023/09/22 06:25:32;;;;;;;0.50;0.50;;;;;;;21.28;70.63;98625.88;5072782;28;20128;-63
2023/09/22 06:28:05;;;;;;;0.50;0.50;;;;;;;21.28;70.63;98631.88;5072909;28;20040;-61
2023/09/22 06:30:34;;;;;;;0.90;0.90;;;;;;;21.33;70.89;98622.06;5071436;28;20500;-63
2023/09/22 06:33:04;;;;;;;5.38;2.03;;;;;;;21.33;71.18;98619.47;5075180;28;20111;-63
2023/09/22 06:35:33;;;;;;;0.75;0.75;;;;;;;21.31;71.13;98625.69;5076861;28;20119;-62
2023/09/22 06:38:02;;;;;;;0.57;0.57;;;;;;;21.29;71.36;98620.59;5076524;28;20037;-62
2023/09/22 06:40:31;;;;;;;0.80;0.80;;;;;;;21.38;71.17;98620.97;5075624;28;20051;-61
2023/09/22 06:43:00;;;;;;;0.57;0.57;;;;;;;21.35;71.15;98622.78;5075256;28;20110;-63
2023/09/22 06:45:51;;;;;;;1.35;1.23;;;;;;;21.28;71.20;98621.50;5075797;28;20048;-63
2023/09/22 06:48:22;;;;;;;0.70;0.65;;;;;;;21.24;71.48;98617.44;5076504;28;20128;-63
2023/09/22 06:50:51;;;;;;;5.15;2.25;;;;;;;21.21;71.68;98617.63;5075437;28;20044;-63
2023/09/22 06:53:21;;;;;;;0.75;0.75;;;;;;;21.16;71.61;98622.25;5074863;28;20115;-61
2023/09/22 06:55:50;;;;;;;0.70;0.70;;;;;;;21.09;71.86;98631.34;5076662;28;20445;-62
2023/09/22 06:58:18;;;;;;;0.60;0.60;;;;;;;21.09;72.16;98631.34;5076569;28;20041;-62
2023/09/22 07:00:49;;;;;;;0.57;0.55;;;;;;;21.15;72.25;98638.78;5078080;28;20075;-62
2023/09/22 07:03:18;;;;;;;0.50;0.50;;;;;;;21.17;72.40;98633.47;5076127;28;20049;-62
2023/09/22 07:05:46;;;;;;;0.50;0.50;;;;;;;21.19;72.45;98629.84;5076022;28;20051;-62
2023/09/22 07:08:15;;;;;;;0.50;0.50;;;;;;;21.24;72.47;98640.81;5076004;28;20037;-63
2023/09/22 07:10:44;;;;;;;1.05;0.98;;;;;;;21.30;72.64;98650.81;5075518;28;20045;-62
2023/09/22 07:13:13;;;;;;;0.50;0.50;;;;;;;21.36;72.69;98653.03;5075887;28;20041;-63
2023/09/22 07:15:42;;;;;;;1.23;1.13;;;;;;;21.37;72.45;98656.47;5076516;28;20036;-63
2023/09/22 07:18:12;;;;;;;0.95;0.93;;;;;;;21.46;72.35;98655.06;5075832;28;20086;-64
2023/09/22 07:20:46;;;;;;;2.67;1.42;;;;;;;21.50;72.31;98651.38;5076108;28;20045;-61
2023/09/22 07:23:16;;;;;;;1.52;1.25;;;;;;;21.49;72.31;98665.28;5075881;28;20122;-62
2023/09/22 07:25:44;;;;;;;0.68;0.68;;;;;;;21.51;72.40;98659.06;5074540;28;20049;-62
2023/09/22 07:28:13;;;;;;;1.17;1.08;;;;;;;21.61;72.09;98654.13;5075958;28;20048;-63
2023/09/22 07:30:43;;;;;;;0.60;0.60;;;;;;;21.64;72.15;98654.78;5072740;28;20086;-63
2023/09/22 07:33:13;;;;;;;0.88;0.88;;;;;;;21.64;72.04;98659.16;5073737;28;20045;-63
2023/09/22 07:35:42;;;;;;;0.40;0.40;;;;;;;21.64;71.93;98659.16;5072943;28;20094;-63
2023/09/22 07:38:11;;;;;;;0.87;0.80;;;;;;;21.60;71.65;98673.22;5069832;28;20037;-63
2023/09/22 07:40:40;;;;;;;1.13;1.02;;;;;;;21.59;71.61;98666.38;5075386;28;20041;-62
2023/09/22 07:43:09;;;;;;;1.05;0.95;;;;;;;21.63;71.65;98660.91;5074881;28;20052;-63
2023/09/22 07:45:38;;;;;;;0.50;0.50;;;;;;;21.69;71.73;98663.09;5074864;28;20048;-62
2023/09/22 07:48:07;;;;;;;0.68;0.68;;;;;;;21.78;71.85;98664.31;5074705;28;20491;-62
2023/09/22 07:50:39;;;;;;;2.85;1.00;;;;;;;21.80;71.73;98670.25;5074831;28;20051;-65
2023/09/22 07:53:08;;;;;;;0.88;0.80;;;;;;;21.79;71.27;98673.75;5075565;28;20048;-63
2023/09/22 07:55:38;;;;;;;0.68;0.68;;;;;;;21.76;71.35;98673.97;5075101;28;20101;-62
2023/09/22 07:58:09;;;;;;;0.73;0.68;;;;;;;21.74;71.13;98675.84;5074430;28;20068;-65
2023/09/22 08:00:42;;;;;;;1.00;0.80;;;;;;;21.77;71.21;98678.22;5074874;28;20158;-62
2023/09/22 08:03:12;;;;;;;0.88;0.88;;;;;;;21.78;71.39;98682.50;5075554;28;20056;-62
2023/09/22 08:05:42;;;;;;;1.65;0.90;;;;;;;21.77;71.32;98681.66;5074861;28;20056;-61
2023/09/22 08:08:11;;;;;;;0.98;0.88;;;;;;;21.80;71.35;98670.25;5074878;28;20105;-61
2023/09/22 08:10:40;;;;;;;1.00;0.70;;;;;;;21.77;71.64;98691.22;5075204;28;20118;-62
2023/09/22 08:13:09;;;;;;;0.75;0.75;;;;;;;21.74;71.49;98686.22;5075256;28;20044;-63
2023/09/22 08:15:38;;;;;;;1.00;0.77;;;;;;;21.71;71.43;98691.59;5075519;28;20502;-62
2023/09/22 08:18:10;;;;;;;1.13;1.02;;;;;;;21.67;71.51;98695.28;5074117;28;20135;-62
2023/09/22 08:20:40;;;;;;;1.95;1.35;;;;;;;21.71;71.96;98707.19;5077039;28;20423;-65
2023/09/22 08:23:10;;;;;;;0.65;0.60;;;;;;;21.80;71.75;98712.66;5075811;28;20036;-64
2023/09/22 08:25:43;;;;;;;0.60;0.60;;;;;;;21.93;71.53;98704.97;5074701;28;20075;-63
2023/09/22 08:28:14;;;;;;;0.60;0.60;;;;;;;22.06;71.38;98705.84;5074957;28;20484;-63
2023/09/22 08:30:43;;;;;;;0.50;0.50;;;;;;;22.20;71.35;98700.63;5074721;28;20051;-63
2023/09/22 08:33:13;;;;;;;0.50;0.50;;;;;;;22.33;70.83;98701.50;5073560;28;20044;-64
2023/09/22 08:35:42;;;;;;;0.63;0.63;;;;;;;22.39;70.99;98695.91;5074612;28;20064;-64
2023/09/22 08:38:34;;;;;;;1.40;1.30;;;;;;;22.46;70.62;98691.97;5074916;28;20044;-63
2023/09/22 08:41:04;;;;;;;0.50;0.50;;;;;;;22.56;70.15;98697.41;5073202;28;20040;-63
2023/09/22 08:43:32;;;;;;;;;;;;;;;22.62;70.04;98687.50;5074870;28;20054;-63
2023/09/22 08:46:01;;;;;;;0.95;0.95;;;;;;;22.64;70.18;98683.03;5074436;28;19924;-62
2023/09/22 08:48:30;;;;;;;0.70;0.70;;;;;;;22.73;70.03;98678.13;5074081;28;20123;-63
2023/09/22 08:50:59;;;;;;;0.88;0.85;;;;;;;22.91;69.47;98679.53;5073591;28;20496;-62
2023/09/22 08:53:29;;;;;;;0.75;0.75;;;;;;;23.18;69.08;98672.44;5074312;28;20045;-63
2023/09/22 08:56:01;;;;;;;2.03;1.85;;;;;;;23.32;68.76;98673.16;5073366;28;20075;-62
2023/09/22 08:58:30;;;;;;;0.50;0.50;;;;;;;23.32;67.95;98680.97;5073600;28;20502;-65
2023/09/22 09:00:59;;;;;;;0.60;0.60;;;;;;;23.37;67.71;98680.69;5073963;28;20043;-62
2023/09/22 09:03:32;;;;;;;0.43;0.43;;;;;;;23.34;67.18;98665.25;5077084;28;20087;-64
2023/09/22 09:06:10;;;;;;;0.98;0.85;;;;;;;23.34;66.87;98665.25;5074067;28;20124;-62
2023/09/22 09:08:39;;;;;;;0.50;0.50;;;;;;;23.30;66.89;98674.22;5073756;28;20098;-63
2023/09/22 09:11:11;;;;;;;1.05;0.65;;;;;;;23.31;66.84;98665.47;5073693;28;20043;-63
2023/09/22 09:13:40;;;;;;;1.35;1.10;;;;;;;23.57;66.90;98656.72;5073721;28;20102;-63
2023/09/22 09:16:10;;;;;;;1.45;1.15;;;;;;;23.73;66.08;98657.28;5072220;28;20044;-62
2023/09/22 09:18:40;;;;;;;1.67;0.88;;;;;;;23.74;66.26;98652.91;5072846;28;20458;-62
2023/09/22 09:21:10;;;;;;;0.68;0.68;;;;;;;23.64;65.83;98657.94;5073192;28;20557;-63
2023/09/22 09:23:52;;;;;;;0.90;0.90;;;;;;;23.69;65.83;98650.63;5072905;28;20051;-61
2023/09/22 09:26:29;;;;;;;0.50;0.50;;;;;;;23.86;64.98;98647.69;5073046;28;20078;-62
2023/09/22 09:29:00;;;;;;;2.38;1.40;;;;;;;24.12;64.95;98642.38;5074075;28;20045;-62
2023/09/22 09:31:45;;;;;;;1.55;1.10;;;;;;;24.32;63.96;98652.22;5072259;28;20118;-63
2023/09/22 09:34:16;;;;;;;0.65;0.65;;;;;;;24.31;64.19;98653.13;5073744;28;20076;-63
2023/09/22 09:36:45;;;;;;;1.13;1.02;;;;;;;24.49;64.11;98643.97;5073447;28;20056;-65
2023/09/22 09:39:14;;;;;;;0.52;0.52;;;;;;;24.58;63.56;98645.91;5073860;28;20495;-64
2023/09/22 09:41:45;;;;;;;4.70;1.73;;;;;;;24.74;63.47;98659.47;5073243;28;20051;-63
2023/09/22 09:44:14;;;;;;;1.80;1.27;;;;;;;24.71;62.69;98657.09;5071671;28;20090;-65
2023/09/22 09:46:44;;;;;;;1.13;1.02;;;;;;;24.76;62.74;98649.78;5075042;28;20043;-63
2023/09/22 09:49:16;;;;;;;2.55;1.65;;;;;;;25.03;62.64;98658.16;5073269;28;20044;-65
2023/09/22 09:51:47;;;;;;;2.22;1.63;;;;;;;25.13;62.17;98651.28;5073328;28;20576;-62
2023/09/22 09:54:20;;;;;;;0.70;0.70;;;;;;;25.29;62.02;98658.75;5105983;28;20131;-63
2023/09/22 09:56:52;;;;;;;0.88;0.73;;;;;;;25.51;61.23;98653.56;5073211;28;20048;-63
2023/09/22 09:59:22;;;;;;;0.60;0.60;;;;;;;25.65;60.94;98649.91;5073147;28;20049;-63
2023/09/22 10:01:52;;;;;;;0.68;0.68;;;;;;;25.58;60.20;98648.72;5073145;28;20041;-63
2023/09/22 10:04:21;;;;;;;0.35;0.35;;;;;;;25.55;60.30;98649.78;5071762;28;20052;-63
2023/09/22 10:06:54;;;;;;;0.65;0.65;;;;;;;25.51;59.88;98637.03;5073913;28;20089;-62
2023/09/22 10:09:23;;;;;;;0.80;0.77;;;;;;;25.66;60.02;98638.47;5077561;28;20381;-64
2023/09/22 10:11:54;;;;;;;;;;;;;;;25.64;60.38;98648.22;5077518;28;20414;-64
2023/09/22 10:14:46;;;;;;;0.60;0.60;;;;;;;25.55;60.48;98639.31;5077145;28;19927;-63
2023/09/22 10:17:21;;;;;;;1.15;1.05;;;;;;;25.56;60.33;98643.59;5077298;28;20098;-65
2023/09/22 10:19:52;;;;;;;2.58;1.90;;;;;;;25.38;60.44;98652.84;5075680;28;20048;-63
2023/09/22 10:22:21;;;;;;;1.20;0.80;;;;;;;25.20;60.68;98649.84;5076240;28;20507;-63
2023/09/22 10:25:15;;;;;;;0.75;0.75;;;;;;;25.32;60.96;98648.06;5076730;28;20076;-63
2023/09/22 10:27:57;;;;;;;1.30;1.02;;;;;;;25.31;60.50;98636.78;5076732;28;20040;-63
2023/09/22 10:30:55;;;;;;;1.20;0.95;;;;;;;25.23;61.08;98643.56;5077213;28;20431;-63
2023/09/22 10:33:32;;;;;;;0.77;0.68;;;;;;;25.38;61.23;98642.41;5056664;28;20045;-64
2023/09/22 10:36:04;;;;;;;0.73;0.73;;;;;;;25.38;61.04;98641.56;5056965;28;20075;-64
2023/09/22 10:38:55;;;;;;;0.50;0.50;;;;;;;25.39;60.72;98632.78;5056877;28;20106;-64
2023/09/22 10:41:24;;;;;;;0.63;0.63;;;;;;;25.45;60.83;98640.16;5056302;28;20045;-64
2023/09/22 10:43:58;;;;;;;0.50;0.50;;;;;;;25.76;59.46;98628.94;5065063;28;20119;-63
2023/09/22 10:46:28;;;;;;;0.63;0.63;;;;;;;25.98;58.39;98631.53;5076606;28;20057;-64
2023/09/22 10:48:57;;;;;;;0.47;0.47;;;;;;;26.02;58.46;98621.63;5076624;28;20033;-64
2023/09/22 10:51:44;;;;;;;0.82;0.82;;;;;;;26.26;57.29;98619.69;5076664;28;20045;-64
2023/09/22 10:54:13;;;;;;;2.00;0.80;;;;;;;26.34;56.97;98612.88;5074530;28;20052;-63
2023/09/22 10:56:43;;;;;;;1.17;0.93;;;;;;;26.34;56.11;98623.34;5073345;28;20071;-62
2023/09/22 10:59:13;;;;;;;0.50;0.50;;;;;;;26.47;55.84;98613.50;5076431;28;20066;-63
2023/09/22 11:01:46;;;;;;;2.72;0.88;;;;;;;26.58;55.44;98616.09;5074909;28;20041;-63
2023/09/22 11:04:17;;;;;;;0.40;0.40;;;;;;;26.66;55.33;98607.56;5076442;28;20447;-64
2023/09/22 11:06:47;;;;;;;0.38;0.38;;;;;;;26.83;55.32;98606.19;5076790;28;20072;-64
2023/09/22 11:09:16;;;;;;;;;;;;;;;26.98;55.13;98626.69;5079602;28;20060;-65
2023/09/22 11:11:48;;;;;;;0.40;0.40;;;;;;;26.95;54.98;98623.47;5075667;28;19921;-64
2023/09/22 11:14:22;;;;;;;4.28;0.60;;;;;;;27.09;54.62;98617.94;5076004;28;20051;-62
2023/09/22 11:16:50;;;;;;;0.90;0.57;;;;;;;27.27;54.42;98618.97;5076033;28;20126;-64
2023/09/22 11:19:21;;;;;;;1.75;1.20;;;;;;;27.32;53.76;98622.03;5074408;28;20049;-64
2023/09/22 11:21:50;;;;;;;0.55;0.55;;;;;;;27.36;53.03;98617.34;5074052;28;20040;-63
2023/09/22 11:24:18;;;;;;;1.75;1.15;;;;;;;27.38;52.62;98621.53;5075031;28;20094;-62
2023/09/22 11:26:47;;;;;;;3.92;1.08;;;;;;;27.42;52.25;98616.84;5075716;28;20048;-65
2023/09/22 11:29:17;;;;;;;1.13;1.00;;;;;;;27.35;52.09;98615.69;5075292;28;20052;-64
2023/09/22 11:31:52;;;;;;;0.60;0.60;;;;;;;27.42;51.63;98607.22;5075701;28;20131;-64
2023/09/22 11:34:23;;;;;;;2.05;0.93;;;;;;;27.55;52.26;98606.94;5075668;28;20518;-63
2023/09/22 11:36:54;;;;;;;0.85;0.57;;;;;;;27.24;52.39;98616.59;5075886;28;20044;-68
2023/09/22 11:39:27;;;;;;;1.25;0.80;;;;;;;27.04;52.89;98612.25;5075550;28;20054;-65
2023/09/22 11:41:56;;;;;;;1.27;1.13;;;;;;;27.05;52.83;98595.56;5074837;28;20488;-64
2023/09/22 11:44:25;;;;;;;0.45;0.45;;;;;;;27.04;53.06;98601.78;5075373;28;20045;-65
2023/09/22 11:46:56;;;;;;;0.52;0.52;;;;;;;27.31;52.90;98595.97;5075695;28;20139;-64
2023/09/22 11:49:36;;;;;;;2.70;1.58;;;;;;;27.64;53.09;98595.69;5073136;28;20045;-64